PWSweather.com
Personal Weather Stations
Station Observations
KOHAVON11
Long Road Station, Avon, OH 44011

Long Road StationAvon, OH 44011

Lat: 41.437, Lon: -82.0477

Elevation: 686

Station Type: Davis Vantage Pro2

http://www.avon-weather.com

High Low Average
Temperature 54.2°F12.3°C 36.4°F2.4°C 45.5°F7.5°C
Dew Point 51.3°F10.7°C 29.1°F-1.6°C 41.4°F5.2°C
Winds 21.0 mph 33.8 kmh Calm Calm 7.0 mph SSW11.3 kmh SSW
Wind Gusts 32.0 mph51.5 kmh -- 16.0 mph25.7 kmh
Humidity 90% 56% 86%
Pressure 29.75 in1007.5 mb 29.13 in986.5 mb -
Precipitation 1.94 in49.3 mm - -
Hour Temp Dew Point Humidity Winds Wind Gusts Pressure Precip Precip Rate Daily Precip Total
12:00 AM 43.1°F6.2°C 29.5°F-1.4°C 59% 21.0 mph SSE33.8 kmh SSE 21.0 mph33.8 kmh 29.75 in1007.5 mb 0.00 in0.0 mm 0.00 in0.0 mm 0.00 in0.0 mm
12:05 AM 43.2°F6.2°C 29.6°F-1.3°C 59% 10.0 mph SE16.1 kmh SE 21.0 mph33.8 kmh 29.75 in1007.5 mb 0.00 in0.0 mm 0.00 in0.0 mm 0.00 in0.0 mm
12:10 AM 43.4°F6.3°C 29.3°F-1.5°C 58% 3.0 mph E4.8 kmh E 21.0 mph33.8 kmh 29.75 in1007.5 mb 0.00 in0.0 mm 0.00 in0.0 mm 0.00 in0.0 mm
12:15 AM 43.5°F6.4°C 29.4°F-1.4°C 58% 4.0 mph SW6.4 kmh SW 18.0 mph29.0 kmh 29.74 in1007.1 mb 0.00 in0.0 mm 0.00 in0.0 mm 0.00 in0.0 mm
12:20 AM 43.5°F6.4°C 29.4°F-1.4°C 58% 9.0 mph SE14.5 kmh SE 18.0 mph29.0 kmh 29.74 in1007.1 mb 0.00 in0.0 mm 0.00 in0.0 mm 0.00 in0.0 mm
12:25 AM 43.6°F6.4°C 29.5°F-1.4°C 58% 4.0 mph ESE6.4 kmh ESE 15.0 mph24.1 kmh 29.73 in1006.8 mb 0.00 in0.0 mm 0.00 in0.0 mm 0.00 in0.0 mm
12:30 AM 43.6°F6.4°C 29.1°F-1.6°C 57% 12.0 mph S19.3 kmh S 15.0 mph24.1 kmh 29.73 in1006.8 mb 0.00 in0.0 mm 0.00 in0.0 mm 0.00 in0.0 mm
12:35 AM 43.8°F6.6°C 29.3°F-1.5°C 57% 7.0 mph SSW11.3 kmh SSW 19.0 mph30.6 kmh 29.73 in1006.8 mb 0.00 in0.0 mm 0.00 in0.0 mm 0.00 in0.0 mm
12:40 AM 43.9°F6.6°C 29.3°F-1.5°C 57% 11.0 mph S17.7 kmh S 19.0 mph30.6 kmh 29.73 in1006.8 mb 0.00 in0.0 mm 0.00 in0.0 mm 0.00 in0.0 mm
12:45 AM 44.1°F6.7°C 29.5°F-1.4°C 57% 7.0 mph S11.3 kmh S 19.0 mph30.6 kmh 29.73 in1006.8 mb 0.00 in0.0 mm 0.00 in0.0 mm 0.00 in0.0 mm
12:50 AM 44.2°F6.8°C 29.6°F-1.3°C 57% 10.0 mph S16.1 kmh S 19.0 mph30.6 kmh 29.73 in1006.8 mb 0.00 in0.0 mm 0.00 in0.0 mm 0.00 in0.0 mm
12:55 AM 44.3°F6.8°C 29.7°F-1.3°C 57% 3.0 mph SW4.8 kmh SW 16.0 mph25.7 kmh 29.73 in1006.8 mb 0.00 in0.0 mm 0.00 in0.0 mm 0.00 in0.0 mm
01:00 AM 44.4°F6.9°C 29.8°F-1.2°C 57% 5.0 mph S8.0 kmh S 16.0 mph25.7 kmh 29.72 in1006.4 mb 0.00 in0.0 mm 0.00 in0.0 mm 0.00 in0.0 mm
01:05 AM 44.5°F6.9°C 29.9°F-1.2°C 57% 4.0 mph S6.4 kmh S 13.0 mph20.9 kmh 29.73 in1006.8 mb 0.00 in0.0 mm 0.00 in0.0 mm 0.00 in0.0 mm
01:10 AM 44.6°F7.0°C 29.6°F-1.3°C 56% 13.0 mph S20.9 kmh S 17.0 mph27.4 kmh 29.73 in1006.8 mb 0.00 in0.0 mm 0.00 in0.0 mm 0.00 in0.0 mm
01:15 AM 44.8°F7.1°C 30.2°F-1.0°C 57% 13.0 mph S20.9 kmh S 17.0 mph27.4 kmh 29.74 in1007.1 mb 0.00 in0.0 mm 0.00 in0.0 mm 0.00 in0.0 mm
01:20 AM 44.9°F7.2°C 30.7°F-0.7°C 58% 12.0 mph SSW19.3 kmh SSW 17.0 mph27.4 kmh 29.75 in1007.5 mb 0.00 in0.0 mm 0.00 in0.0 mm 0.00 in0.0 mm
01:25 AM 45.0°F7.2°C 31.3°F-0.4°C 59% 5.0 mph SW8.0 kmh SW 17.0 mph27.4 kmh 29.75 in1007.5 mb 0.00 in0.0 mm 0.00 in0.0 mm 0.00 in0.0 mm
01:30 AM 45.0°F7.2°C 31.3°F-0.4°C 59% 8.0 mph S12.9 kmh S 17.0 mph27.4 kmh 29.75 in1007.5 mb 0.00 in0.0 mm 0.00 in0.0 mm 0.00 in0.0 mm
01:35 AM 45.0°F7.2°C 31.7°F-0.2°C 60% 7.0 mph SSW11.3 kmh SSW 17.0 mph27.4 kmh 29.75 in1007.5 mb 0.00 in0.0 mm 0.00 in0.0 mm 0.00 in0.0 mm
01:40 AM 44.8°F7.1°C 32.3°F0.2°C 62% 5.0 mph S8.0 kmh S 17.0 mph27.4 kmh 29.75 in1007.5 mb 0.00 in0.0 mm 0.00 in0.0 mm 0.01 in0.3 mm
01:45 AM 44.5°F6.9°C 32.5°F0.3°C 63% 9.0 mph S14.5 kmh S 18.0 mph29.0 kmh 29.73 in1006.8 mb 0.00 in0.0 mm 0.00 in0.0 mm 0.01 in0.3 mm
01:50 AM 44.2°F6.8°C 32.6°F0.3°C 64% 6.0 mph S9.7 kmh S 18.0 mph29.0 kmh 29.73 in1006.8 mb 0.00 in0.0 mm 0.00 in0.0 mm 0.01 in0.3 mm
01:55 AM 43.9°F6.6°C 33.1°F0.6°C 66% 2.0 mph SE3.2 kmh SE 18.0 mph29.0 kmh 29.72 in1006.4 mb 0.05 in1.3 mm 0.60 in15.2 mm 0.02 in0.5 mm
02:00 AM 43.7°F6.5°C 33.7°F0.9°C 68% 4.0 mph S6.4 kmh S 18.0 mph29.0 kmh 29.72 in1006.4 mb 0.14 in3.6 mm 0.10 in2.5 mm 0.03 in0.8 mm
02:05 AM 43.2°F6.2°C 33.9°F1.1°C 70% Calm Calm 17.0 mph27.4 kmh 29.71 in1006.1 mb 0.31 in7.9 mm 2.04 in51.8 mm 0.05 in1.3 mm
02:10 AM 43.0°F6.1°C 34.1°F1.2°C 71% 2.0 mph S3.2 kmh S 17.0 mph27.4 kmh 29.71 in1006.1 mb 0.33 in8.4 mm 0.24 in6.1 mm 0.07 in1.8 mm
02:15 AM 42.5°F5.8°C 34.3°F1.3°C 73% 2.0 mph SSW3.2 kmh SSW 11.0 mph17.7 kmh 29.71 in1006.1 mb 0.38 in9.7 mm 0.60 in15.2 mm 0.10 in2.5 mm
02:20 AM 42.3°F5.7°C 34.9°F1.6°C 75% 2.0 mph NE3.2 kmh NE 11.0 mph17.7 kmh 29.70 in1005.8 mb 0.30 in7.6 mm 0.00 in0.0 mm 0.13 in3.3 mm
02:25 AM 42.0°F5.6°C 35.2°F1.8°C 77% 11.0 mph S17.7 kmh S 14.0 mph22.5 kmh 29.71 in1006.1 mb 0.40 in10.2 mm 1.20 in30.5 mm 0.16 in4.1 mm
02:30 AM 41.8°F5.4°C 35.7°F2.1°C 79% 7.0 mph S11.3 kmh S 15.0 mph24.1 kmh 29.71 in1006.1 mb 0.31 in7.9 mm 0.00 in0.0 mm 0.18 in4.6 mm
02:35 AM 41.6°F5.3°C 35.8°F2.1°C 80% 1.0 mph SSE1.6 kmh SSE 18.0 mph29.0 kmh 29.71 in1006.1 mb 0.18 in4.6 mm 0.00 in0.0 mm 0.20 in5.1 mm
02:40 AM 41.4°F5.2°C 36.3°F2.4°C 82% 3.0 mph S4.8 kmh S 18.0 mph29.0 kmh 29.71 in1006.1 mb 0.16 in4.1 mm 0.00 in0.0 mm 0.22 in5.6 mm
02:45 AM 41.3°F5.2°C 36.2°F2.3°C 82% 6.0 mph SSE9.7 kmh SSE 18.0 mph29.0 kmh 29.70 in1005.8 mb 0.11 in2.8 mm 0.00 in0.0 mm 0.23 in5.8 mm
02:50 AM 41.3°F5.2°C 36.5°F2.5°C 83% 8.0 mph SE12.9 kmh SE 18.0 mph29.0 kmh 29.69 in1005.4 mb 0.17 in4.3 mm 0.72 in18.3 mm 0.24 in6.1 mm
02:55 AM 41.2°F5.1°C 36.7°F2.6°C 84% 2.0 mph SSE3.2 kmh SSE 10.0 mph16.1 kmh 29.68 in1005.1 mb 0.11 in2.8 mm 0.00 in0.0 mm 0.25 in6.4 mm
03:00 AM 41.2°F5.1°C 36.7°F2.6°C 84% 7.0 mph SSW11.3 kmh SSW 12.0 mph19.3 kmh 29.67 in1004.7 mb 0.17 in4.3 mm 0.07 in1.8 mm 0.26 in6.6 mm
03:05 AM 41.2°F5.1°C 37.0°F2.8°C 85% 4.0 mph S6.4 kmh S 12.0 mph19.3 kmh 29.66 in1004.4 mb 0.27 in6.9 mm 1.20 in30.5 mm 0.28 in7.1 mm
03:10 AM 41.3°F5.2°C 37.1°F2.8°C 85% 5.0 mph ESE8.0 kmh ESE 18.0 mph29.0 kmh 29.66 in1004.4 mb 0.11 in2.8 mm 0.00 in0.0 mm 0.28 in7.1 mm
03:15 AM 41.3°F5.2°C 37.4°F3.0°C 86% 13.0 mph S20.9 kmh S 18.0 mph29.0 kmh 29.65 in1004.1 mb 0.26 in6.6 mm 1.80 in45.7 mm 0.30 in7.6 mm
03:20 AM 41.4°F5.2°C 37.5°F3.1°C 86% 8.0 mph S12.9 kmh S 18.0 mph29.0 kmh 29.65 in1004.1 mb 0.22 in5.6 mm 0.00 in0.0 mm 0.34 in8.6 mm
03:25 AM 41.5°F5.3°C 37.6°F3.1°C 86% 4.0 mph SW6.4 kmh SW 18.0 mph29.0 kmh 29.64 in1003.7 mb 0.12 in3.0 mm 0.00 in0.0 mm 0.35 in8.9 mm
03:30 AM 41.6°F5.3°C 38.0°F3.3°C 87% 7.0 mph SE11.3 kmh SE 18.0 mph29.0 kmh 29.64 in1003.7 mb 0.08 in2.0 mm 0.00 in0.0 mm 0.35 in8.9 mm
03:35 AM 41.7°F5.4°C 38.1°F3.4°C 87% 3.0 mph SE4.8 kmh SE 20.0 mph32.2 kmh 29.63 in1003.4 mb 0.24 in6.1 mm 1.92 in48.8 mm 0.37 in9.4 mm
03:40 AM 41.9°F5.5°C 38.3°F3.5°C 87% 11.0 mph S17.7 kmh S 20.0 mph32.2 kmh 29.63 in1003.4 mb 0.19 in4.8 mm 0.00 in0.0 mm 0.38 in9.7 mm
03:45 AM 42.1°F5.6°C 38.5°F3.6°C 87% 4.0 mph SSW6.4 kmh SSW 20.0 mph32.2 kmh 29.64 in1003.7 mb 0.08 in2.0 mm 0.00 in0.0 mm 0.38 in9.7 mm
03:50 AM 42.3°F5.7°C 39.0°F3.9°C 88% 12.0 mph S19.3 kmh S 20.0 mph32.2 kmh 29.64 in1003.7 mb 0.13 in3.3 mm 0.60 in15.2 mm 0.40 in10.2 mm
03:55 AM 42.4°F5.8°C 39.1°F3.9°C 88% 18.0 mph S29.0 kmh S 18.0 mph29.0 kmh 29.63 in1003.4 mb 0.10 in2.5 mm 0.00 in0.0 mm 0.40 in10.2 mm
04:00 AM 42.5°F5.8°C 39.2°F4.0°C 88% 10.0 mph S16.1 kmh S 20.0 mph32.2 kmh 29.63 in1003.4 mb 0.06 in1.5 mm 0.00 in0.0 mm 0.41 in10.4 mm
04:05 AM 42.7°F5.9°C 39.4°F4.1°C 88% 17.0 mph S27.4 kmh S 22.0 mph35.4 kmh 29.63 in1003.4 mb 0.06 in1.5 mm 0.00 in0.0 mm 0.41 in10.4 mm
04:10 AM 42.7°F5.9°C 39.4°F4.1°C 88% 7.0 mph SSW11.3 kmh SSW 22.0 mph35.4 kmh 29.63 in1003.4 mb 0.05 in1.3 mm 0.00 in0.0 mm 0.41 in10.4 mm
04:15 AM 42.7°F5.9°C 39.4°F4.1°C 88% 9.0 mph SSW14.5 kmh SSW 22.0 mph35.4 kmh 29.63 in1003.4 mb 0.04 in1.0 mm 0.00 in0.0 mm 0.41 in10.4 mm
04:20 AM 42.6°F5.9°C 39.3°F4.1°C 88% 5.0 mph S8.0 kmh S 22.0 mph35.4 kmh 29.62 in1003.0 mb 0.00 in0.0 mm 0.00 in0.0 mm 0.41 in10.4 mm
04:25 AM 42.5°F5.8°C 39.2°F4.0°C 88% 8.0 mph S12.9 kmh S 19.0 mph30.6 kmh 29.62 in1003.0 mb 0.00 in0.0 mm 0.00 in0.0 mm 0.42 in10.7 mm
04:30 AM 42.5°F5.8°C 39.2°F4.0°C 88% 7.0 mph SSW11.3 kmh SSW 22.0 mph35.4 kmh 29.62 in1003.0 mb 0.00 in0.0 mm 0.00 in0.0 mm 0.42 in10.7 mm
04:35 AM 42.5°F5.8°C 39.2°F4.0°C 88% 8.0 mph S12.9 kmh S 22.0 mph35.4 kmh 29.62 in1003.0 mb 0.00 in0.0 mm 0.00 in0.0 mm 0.42 in10.7 mm
04:40 AM 42.5°F5.8°C 39.2°F4.0°C 88% 7.0 mph SSE11.3 kmh SSE 22.0 mph35.4 kmh 29.61 in1002.7 mb 0.00 in0.0 mm 0.00 in0.0 mm 0.42 in10.7 mm
04:45 AM 42.4°F5.8°C 39.1°F3.9°C 88% 11.0 mph SSW17.7 kmh SSW 22.0 mph35.4 kmh 29.61 in1002.7 mb 0.00 in0.0 mm 0.00 in0.0 mm 0.43 in10.9 mm
04:50 AM 42.5°F5.8°C 39.2°F4.0°C 88% 14.0 mph S22.5 kmh S 19.0 mph30.6 kmh 29.61 in1002.7 mb 0.24 in6.1 mm 2.88 in73.2 mm 0.46 in11.7 mm
04:55 AM 42.5°F5.8°C 39.2°F4.0°C 88% 10.0 mph S16.1 kmh S 20.0 mph32.2 kmh 29.61 in1002.7 mb 0.18 in4.6 mm 0.00 in0.0 mm 0.47 in11.9 mm
05:00 AM 42.5°F5.8°C 39.2°F4.0°C 88% 8.0 mph S12.9 kmh S 22.0 mph35.4 kmh 29.61 in1002.7 mb 0.11 in2.8 mm 0.00 in0.0 mm 0.48 in12.2 mm
05:05 AM 42.5°F5.8°C 39.2°F4.0°C 88% 15.0 mph SSW24.1 kmh SSW 22.0 mph35.4 kmh 29.61 in1002.7 mb 0.09 in2.3 mm 0.00 in0.0 mm 0.48 in12.2 mm
05:10 AM 42.5°F5.8°C 39.2°F4.0°C 88% 2.0 mph S3.2 kmh S 22.0 mph35.4 kmh 29.60 in1002.4 mb 0.06 in1.5 mm 0.00 in0.0 mm 0.49 in12.4 mm
05:15 AM 42.5°F5.8°C 39.2°F4.0°C 88% 16.0 mph S25.7 kmh S 22.0 mph35.4 kmh 29.60 in1002.4 mb 0.06 in1.5 mm 0.00 in0.0 mm 0.49 in12.4 mm
05:20 AM 42.6°F5.9°C 39.3°F4.1°C 88% 7.0 mph SSW11.3 kmh SSW 22.0 mph35.4 kmh 29.60 in1002.4 mb 0.05 in1.3 mm 0.00 in0.0 mm 0.49 in12.4 mm
05:25 AM 42.6°F5.9°C 39.3°F4.1°C 88% 7.0 mph SSE11.3 kmh SSE 22.0 mph35.4 kmh 29.60 in1002.4 mb 0.04 in1.0 mm 0.00 in0.0 mm 0.49 in12.4 mm
05:30 AM 42.7°F5.9°C 39.4°F4.1°C 88% 2.0 mph SSE3.2 kmh SSE 22.0 mph35.4 kmh 29.60 in1002.4 mb 0.00 in0.0 mm 0.00 in0.0 mm 0.49 in12.4 mm
05:35 AM 42.7°F5.9°C 39.4°F4.1°C 88% 6.0 mph S9.7 kmh S 15.0 mph24.1 kmh 29.61 in1002.7 mb 0.00 in0.0 mm 0.00 in0.0 mm 0.49 in12.4 mm
05:40 AM 42.7°F5.9°C 39.4°F4.1°C 88% 10.0 mph SSW16.1 kmh SSW 16.0 mph25.7 kmh 29.60 in1002.4 mb 0.00 in0.0 mm 0.00 in0.0 mm 0.49 in12.4 mm
05:45 AM 42.7°F5.9°C 39.4°F4.1°C 88% 4.0 mph S6.4 kmh S 16.0 mph25.7 kmh 29.60 in1002.4 mb 0.00 in0.0 mm 0.00 in0.0 mm 0.49 in12.4 mm
05:50 AM 42.8°F6.0°C 39.5°F4.2°C 88% 7.0 mph S11.3 kmh S 16.0 mph25.7 kmh 29.60 in1002.4 mb 0.00 in0.0 mm 0.00 in0.0 mm 0.49 in12.4 mm
05:55 AM 42.9°F6.1°C 39.6°F4.2°C 88% 7.0 mph S11.3 kmh S 16.0 mph25.7 kmh 29.60 in1002.4 mb 0.00 in0.0 mm 0.00 in0.0 mm 0.50 in12.7 mm
06:00 AM 43.0°F6.1°C 39.7°F4.3°C 88% 8.0 mph S12.9 kmh S 13.0 mph20.9 kmh 29.60 in1002.4 mb 0.00 in0.0 mm 0.00 in0.0 mm 0.50 in12.7 mm
06:05 AM 43.0°F6.1°C 39.7°F4.3°C 88% 7.0 mph SSW11.3 kmh SSW 13.0 mph20.9 kmh 29.60 in1002.4 mb 0.00 in0.0 mm 0.00 in0.0 mm 0.50 in12.7 mm
06:10 AM 43.1°F6.2°C 39.8°F4.3°C 88% 4.0 mph S6.4 kmh S 14.0 mph22.5 kmh 29.60 in1002.4 mb 0.05 in1.3 mm 0.60 in15.2 mm 0.51 in13.0 mm
06:15 AM 43.1°F6.2°C 39.8°F4.3°C 88% 7.0 mph S11.3 kmh S 14.0 mph22.5 kmh 29.60 in1002.4 mb 0.05 in1.3 mm 0.00 in0.0 mm 0.51 in13.0 mm
06:20 AM 43.2°F6.2°C 39.9°F4.4°C 88% 6.0 mph SSW9.7 kmh SSW 14.0 mph22.5 kmh 29.60 in1002.4 mb 0.05 in1.3 mm 0.00 in0.0 mm 0.51 in13.0 mm
06:25 AM 43.2°F6.2°C 39.9°F4.4°C 88% 4.0 mph S6.4 kmh S 14.0 mph22.5 kmh 29.60 in1002.4 mb 0.00 in0.0 mm 0.00 in0.0 mm 0.51 in13.0 mm
06:30 AM 43.3°F6.3°C 40.0°F4.4°C 88% Calm Calm -- 29.60 in1002.4 mb 0.00 in0.0 mm 0.00 in0.0 mm 0.51 in13.0 mm
06:35 AM 43.3°F6.3°C 40.0°F4.4°C 88% 7.0 mph SSW11.3 kmh SSW 9.0 mph14.5 kmh 29.59 in1002.0 mb 0.00 in0.0 mm 0.00 in0.0 mm 0.51 in13.0 mm
06:40 AM 43.4°F6.3°C 40.1°F4.5°C 88% 7.0 mph SW11.3 kmh SW 11.0 mph17.7 kmh 29.60 in1002.4 mb 0.00 in0.0 mm 0.00 in0.0 mm 0.51 in13.0 mm
06:45 AM 43.4°F6.3°C 40.1°F4.5°C 88% 6.0 mph S9.7 kmh S 11.0 mph17.7 kmh 29.60 in1002.4 mb 0.00 in0.0 mm 0.00 in0.0 mm 0.51 in13.0 mm
06:50 AM 43.4°F6.3°C 40.1°F4.5°C 88% 7.0 mph S11.3 kmh S 11.0 mph17.7 kmh 29.59 in1002.0 mb 0.00 in0.0 mm 0.00 in0.0 mm 0.52 in13.2 mm
06:55 AM 43.5°F6.4°C 40.2°F4.6°C 88% 2.0 mph S3.2 kmh S 11.0 mph17.7 kmh 29.60 in1002.4 mb 0.00 in0.0 mm 0.00 in0.0 mm 0.52 in13.2 mm
07:00 AM 43.5°F6.4°C 40.2°F4.6°C 88% 9.0 mph S14.5 kmh S 10.0 mph16.1 kmh 29.59 in1002.0 mb 0.00 in0.0 mm 0.00 in0.0 mm 0.52 in13.2 mm
07:05 AM 43.5°F6.4°C 40.2°F4.6°C 88% 7.0 mph SSW11.3 kmh SSW 11.0 mph17.7 kmh 29.59 in1002.0 mb 0.00 in0.0 mm 0.00 in0.0 mm 0.52 in13.2 mm
07:10 AM 43.5°F6.4°C 40.2°F4.6°C 88% Calm Calm 11.0 mph17.7 kmh 29.59 in1002.0 mb 0.00 in0.0 mm 0.00 in0.0 mm 0.52 in13.2 mm
07:15 AM 43.5°F6.4°C 40.2°F4.6°C 88% 3.0 mph SE4.8 kmh SE 5.0 mph8.0 kmh 29.59 in1002.0 mb 0.00 in0.0 mm 0.00 in0.0 mm 0.52 in13.2 mm
07:20 AM 43.5°F6.4°C 40.5°F4.7°C 89% 5.0 mph S8.0 kmh S 6.0 mph9.7 kmh 29.59 in1002.0 mb 0.00 in0.0 mm 0.00 in0.0 mm 0.52 in13.2 mm
07:25 AM 43.6°F6.4°C 40.6°F4.8°C 89% Calm Calm 6.0 mph9.7 kmh 29.59 in1002.0 mb 0.00 in0.0 mm 0.00 in0.0 mm 0.52 in13.2 mm
07:30 AM 43.6°F6.4°C 40.6°F4.8°C 89% 3.0 mph S4.8 kmh S 11.0 mph17.7 kmh 29.58 in1001.7 mb 0.00 in0.0 mm 0.00 in0.0 mm 0.52 in13.2 mm
07:35 AM 43.7°F6.5°C 40.7°F4.8°C 89% Calm Calm 11.0 mph17.7 kmh 29.59 in1002.0 mb 0.00 in0.0 mm 0.00 in0.0 mm 0.52 in13.2 mm
07:40 AM 43.7°F6.5°C 40.7°F4.8°C 89% 2.0 mph S3.2 kmh S 8.0 mph12.9 kmh 29.59 in1002.0 mb 0.00 in0.0 mm 0.00 in0.0 mm 0.52 in13.2 mm
07:45 AM 43.7°F6.5°C 40.7°F4.8°C 89% 2.0 mph S3.2 kmh S 8.0 mph12.9 kmh 29.59 in1002.0 mb 0.00 in0.0 mm 0.00 in0.0 mm 0.52 in13.2 mm
07:50 AM 43.7°F6.5°C 40.7°F4.8°C 89% Calm Calm 8.0 mph12.9 kmh 29.59 in1002.0 mb 0.00 in0.0 mm 0.00 in0.0 mm 0.52 in13.2 mm
07:55 AM 43.8°F6.6°C 40.8°F4.9°C 89% 8.0 mph S12.9 kmh S 11.0 mph17.7 kmh 29.59 in1002.0 mb 0.00 in0.0 mm 0.00 in0.0 mm 0.52 in13.2 mm
08:00 AM 43.8°F6.6°C 40.8°F4.9°C 89% 7.0 mph S11.3 kmh S 11.0 mph17.7 kmh 29.58 in1001.7 mb 0.00 in0.0 mm 0.00 in0.0 mm 0.52 in13.2 mm
08:05 AM 43.9°F6.6°C 40.9°F4.9°C 89% 7.0 mph S11.3 kmh S 11.0 mph17.7 kmh 29.59 in1002.0 mb 0.00 in0.0 mm 0.00 in0.0 mm 0.52 in13.2 mm
08:10 AM 43.9°F6.6°C 40.9°F4.9°C 89% 3.0 mph S4.8 kmh S 3.0 mph4.8 kmh 29.59 in1002.0 mb 0.00 in0.0 mm 0.00 in0.0 mm 0.53 in13.5 mm
08:15 AM 44.0°F6.7°C 41.0°F5.0°C 89% 5.0 mph SSW8.0 kmh SSW 7.0 mph11.3 kmh 29.58 in1001.7 mb 0.00 in0.0 mm 0.00 in0.0 mm 0.53 in13.5 mm
08:20 AM 44.0°F6.7°C 41.0°F5.0°C 89% Calm Calm 7.0 mph11.3 kmh 29.58 in1001.7 mb 0.00 in0.0 mm 0.00 in0.0 mm 0.53 in13.5 mm
08:25 AM 44.1°F6.7°C 41.1°F5.1°C 89% 4.0 mph S6.4 kmh S 8.0 mph12.9 kmh 29.58 in1001.7 mb 0.00 in0.0 mm 0.00 in0.0 mm 0.53 in13.5 mm
08:30 AM 44.2°F6.8°C 41.2°F5.1°C 89% Calm Calm 8.0 mph12.9 kmh 29.58 in1001.7 mb 0.00 in0.0 mm 0.00 in0.0 mm 0.53 in13.5 mm
08:35 AM 44.3°F6.8°C 41.3°F5.2°C 89% 3.0 mph S4.8 kmh S 10.0 mph16.1 kmh 29.58 in1001.7 mb 0.00 in0.0 mm 0.00 in0.0 mm 0.53 in13.5 mm
08:40 AM 44.3°F6.8°C 41.3°F5.2°C 89% 1.0 mph S1.6 kmh S 5.0 mph8.0 kmh 29.58 in1001.7 mb 0.00 in0.0 mm 0.00 in0.0 mm 0.53 in13.5 mm
08:45 AM 44.4°F6.9°C 41.4°F5.2°C 89% 1.0 mph S1.6 kmh S 6.0 mph9.7 kmh 29.57 in1001.4 mb 0.00 in0.0 mm 0.00 in0.0 mm 0.54 in13.7 mm
08:50 AM 44.5°F6.9°C 41.5°F5.3°C 89% 2.0 mph S3.2 kmh S 6.0 mph9.7 kmh 29.57 in1001.4 mb 0.00 in0.0 mm 0.00 in0.0 mm 0.54 in13.7 mm
08:55 AM 44.6°F7.0°C 41.6°F5.3°C 89% Calm Calm 5.0 mph8.0 kmh 29.56 in1001.0 mb 0.00 in0.0 mm 0.00 in0.0 mm 0.54 in13.7 mm
09:00 AM 44.6°F7.0°C 41.6°F5.3°C 89% Calm Calm 4.0 mph6.4 kmh 29.55 in1000.7 mb 0.00 in0.0 mm 0.00 in0.0 mm 0.54 in13.7 mm
09:05 AM 44.7°F7.1°C 41.7°F5.4°C 89% 1.0 mph ESE1.6 kmh ESE 2.0 mph3.2 kmh 29.54 in1000.3 mb 0.00 in0.0 mm 0.00 in0.0 mm 0.54 in13.7 mm
09:10 AM 44.8°F7.1°C 41.8°F5.4°C 89% Calm Calm 6.0 mph9.7 kmh 29.53 in1000.0 mb 0.00 in0.0 mm 0.00 in0.0 mm 0.54 in13.7 mm
09:15 AM 44.9°F7.2°C 41.9°F5.5°C 89% 6.0 mph SSE9.7 kmh SSE 7.0 mph11.3 kmh 29.52 in999.7 mb 0.00 in0.0 mm 0.00 in0.0 mm 0.54 in13.7 mm
09:20 AM 45.0°F7.2°C 42.0°F5.6°C 89% Calm Calm 5.0 mph8.0 kmh 29.51 in999.3 mb 0.00 in0.0 mm 0.00 in0.0 mm 0.54 in13.7 mm
09:25 AM 45.2°F7.3°C 42.2°F5.7°C 89% 2.0 mph SW3.2 kmh SW 5.0 mph8.0 kmh 29.51 in999.3 mb 0.00 in0.0 mm 0.00 in0.0 mm 0.54 in13.7 mm
09:30 AM 45.3°F7.4°C 42.5°F5.8°C 90% Calm Calm 7.0 mph11.3 kmh 29.51 in999.3 mb 0.00 in0.0 mm 0.00 in0.0 mm 0.54 in13.7 mm
09:35 AM 45.5°F7.5°C 42.4°F5.8°C 89% 1.0 mph S1.6 kmh S 3.0 mph4.8 kmh 29.52 in999.7 mb 0.00 in0.0 mm 0.00 in0.0 mm 0.54 in13.7 mm
09:40 AM 45.6°F7.6°C 42.5°F5.8°C 89% Calm Calm 3.0 mph4.8 kmh 29.51 in999.3 mb 0.00 in0.0 mm 0.00 in0.0 mm 0.54 in13.7 mm
09:45 AM 45.7°F7.6°C 42.6°F5.9°C 89% Calm Calm 7.0 mph11.3 kmh 29.51 in999.3 mb 0.00 in0.0 mm 0.00 in0.0 mm 0.54 in13.7 mm
09:50 AM 45.8°F7.7°C 42.7°F5.9°C 89% Calm Calm 7.0 mph11.3 kmh 29.51 in999.3 mb 0.00 in0.0 mm 0.00 in0.0 mm 0.54 in13.7 mm
09:55 AM 45.9°F7.7°C 43.1°F6.2°C 90% Calm Calm -- 29.50 in999.0 mb 0.00 in0.0 mm 0.00 in0.0 mm 0.54 in13.7 mm
10:00 AM 46.0°F7.8°C 43.2°F6.2°C 90% 1.0 mph SE1.6 kmh SE 1.0 mph1.6 kmh 29.50 in999.0 mb 0.00 in0.0 mm 0.00 in0.0 mm 0.54 in13.7 mm
10:05 AM 46.1°F7.8°C 43.3°F6.3°C 90% Calm Calm -- 29.50 in999.0 mb 0.00 in0.0 mm 0.00 in0.0 mm 0.54 in13.7 mm
10:10 AM 46.1°F7.8°C 43.3°F6.3°C 90% Calm Calm 2.0 mph3.2 kmh 29.50 in999.0 mb 0.00 in0.0 mm 0.00 in0.0 mm 0.54 in13.7 mm
10:15 AM 46.2°F7.9°C 43.4°F6.3°C 90% Calm Calm -- 29.50 in999.0 mb 0.00 in0.0 mm 0.00 in0.0 mm 0.54 in13.7 mm
10:20 AM 46.2°F7.9°C 43.4°F6.3°C 90% Calm Calm -- 29.50 in999.0 mb 0.00 in0.0 mm 0.00 in0.0 mm 0.54 in13.7 mm
10:25 AM 46.2°F7.9°C 43.1°F6.2°C 89% Calm Calm -- 29.50 in999.0 mb 0.00 in0.0 mm 0.00 in0.0 mm 0.54 in13.7 mm
10:30 AM 46.3°F7.9°C 43.2°F6.2°C 89% Calm Calm -- 29.50 in999.0 mb 0.00 in0.0 mm 0.00 in0.0 mm 0.54 in13.7 mm
10:35 AM 46.3°F7.9°C 43.2°F6.2°C 89% Calm Calm 3.0 mph4.8 kmh 29.50 in999.0 mb 0.00 in0.0 mm 0.00 in0.0 mm 0.54 in13.7 mm
10:40 AM 46.3°F7.9°C 43.2°F6.2°C 89% Calm Calm -- 29.50 in999.0 mb 0.00 in0.0 mm 0.00 in0.0 mm 0.54 in13.7 mm
10:45 AM 46.4°F8.0°C 43.3°F6.3°C 89% Calm Calm -- 29.50 in999.0 mb 0.00 in0.0 mm 0.00 in0.0 mm 0.54 in13.7 mm
10:50 AM 46.4°F8.0°C 43.3°F6.3°C 89% 3.0 mph S4.8 kmh S 3.0 mph4.8 kmh 29.49 in998.6 mb 0.00 in0.0 mm 0.00 in0.0 mm 0.54 in13.7 mm
10:55 AM 46.5°F8.1°C 43.4°F6.3°C 89% Calm Calm 10.0 mph16.1 kmh 29.49 in998.6 mb 0.00 in0.0 mm 0.00 in0.0 mm 0.54 in13.7 mm
11:00 AM 46.6°F8.1°C 43.5°F6.4°C 89% 5.0 mph S8.0 kmh S 8.0 mph12.9 kmh 29.49 in998.6 mb 0.00 in0.0 mm 0.00 in0.0 mm 0.54 in13.7 mm
11:05 AM 46.7°F8.2°C 43.9°F6.6°C 90% 2.0 mph S3.2 kmh S 9.0 mph14.5 kmh 29.49 in998.6 mb 0.00 in0.0 mm 0.00 in0.0 mm 0.54 in13.7 mm
11:10 AM 46.8°F8.2°C 44.0°F6.7°C 90% Calm Calm 15.0 mph24.1 kmh 29.48 in998.3 mb 0.00 in0.0 mm 0.00 in0.0 mm 0.54 in13.7 mm
11:15 AM 46.8°F8.2°C 44.0°F6.7°C 90% 4.0 mph S6.4 kmh S 15.0 mph24.1 kmh 29.48 in998.3 mb 0.00 in0.0 mm 0.00 in0.0 mm 0.54 in13.7 mm
11:20 AM 46.9°F8.3°C 44.1°F6.7°C 90% Calm Calm 15.0 mph24.1 kmh 29.48 in998.3 mb 0.00 in0.0 mm 0.00 in0.0 mm 0.54 in13.7 mm
11:25 AM 47.0°F8.3°C 44.2°F6.8°C 90% 1.0 mph SSE1.6 kmh SSE 15.0 mph24.1 kmh 29.47 in998.0 mb 0.00 in0.0 mm 0.00 in0.0 mm 0.55 in14.0 mm
11:30 AM 47.0°F8.3°C 44.2°F6.8°C 90% Calm Calm 11.0 mph17.7 kmh 29.47 in998.0 mb 0.00 in0.0 mm 0.00 in0.0 mm 0.55 in14.0 mm
11:35 AM 47.0°F8.3°C 44.2°F6.8°C 90% 7.0 mph S11.3 kmh S 11.0 mph17.7 kmh 29.46 in997.6 mb 0.05 in1.3 mm 0.60 in15.2 mm 0.55 in14.0 mm
11:40 AM 47.1°F8.4°C 44.3°F6.8°C 90% 2.0 mph SSE3.2 kmh SSE 9.0 mph14.5 kmh 29.46 in997.6 mb 0.05 in1.3 mm 0.00 in0.0 mm 0.56 in14.2 mm
11:45 AM 47.1°F8.4°C 44.3°F6.8°C 90% Calm Calm 7.0 mph11.3 kmh 29.45 in997.3 mb 0.05 in1.3 mm 0.00 in0.0 mm 0.56 in14.2 mm
11:50 AM 47.2°F8.4°C 44.4°F6.9°C 90% Calm Calm 7.0 mph11.3 kmh 29.44 in997.0 mb 0.04 in1.0 mm 0.00 in0.0 mm 0.56 in14.2 mm
11:55 AM 47.2°F8.4°C 44.4°F6.9°C 90% Calm Calm 9.0 mph14.5 kmh 29.43 in996.6 mb 0.04 in1.0 mm 0.00 in0.0 mm 0.57 in14.5 mm
12:00 PM 47.3°F8.5°C 44.5°F6.9°C 90% Calm Calm 5.0 mph8.0 kmh 29.42 in996.3 mb 0.04 in1.0 mm 0.00 in0.0 mm 0.57 in14.5 mm
12:05 PM 47.3°F8.5°C 44.5°F6.9°C 90% Calm Calm 6.0 mph9.7 kmh 29.41 in995.9 mb 0.05 in1.3 mm 0.12 in3.0 mm 0.58 in14.7 mm
12:10 PM 47.4°F8.6°C 44.6°F7.0°C 90% Calm Calm 6.0 mph9.7 kmh 29.40 in995.6 mb 0.05 in1.3 mm 0.00 in0.0 mm 0.58 in14.7 mm
12:15 PM 47.4°F8.6°C 44.6°F7.0°C 90% Calm Calm 7.0 mph11.3 kmh 29.39 in995.3 mb 0.07 in1.8 mm 0.24 in6.1 mm 0.59 in15.0 mm
12:20 PM 47.5°F8.6°C 44.7°F7.1°C 90% Calm Calm 2.0 mph3.2 kmh 29.39 in995.3 mb 0.09 in2.3 mm 0.24 in6.1 mm 0.60 in15.2 mm
12:25 PM 47.5°F8.6°C 44.7°F7.1°C 90% 9.0 mph S14.5 kmh S 9.0 mph14.5 kmh 29.38 in994.9 mb 0.10 in2.5 mm 0.12 in3.0 mm 0.60 in15.2 mm
12:30 PM 47.6°F8.7°C 44.8°F7.1°C 90% 8.0 mph S12.9 kmh S 9.0 mph14.5 kmh 29.37 in994.6 mb 0.17 in4.3 mm 0.84 in21.3 mm 0.62 in15.7 mm
12:35 PM 47.6°F8.7°C 44.8°F7.1°C 90% 4.0 mph SSE6.4 kmh SSE 10.0 mph16.1 kmh 29.36 in994.2 mb 0.24 in6.1 mm 0.84 in21.3 mm 0.64 in16.3 mm
12:40 PM 47.7°F8.7°C 44.9°F7.2°C 90% 8.0 mph S12.9 kmh S 15.0 mph24.1 kmh 29.36 in994.2 mb 0.15 in3.8 mm 0.00 in0.0 mm 0.65 in16.5 mm
12:45 PM 47.8°F8.8°C 45.0°F7.2°C 90% 6.0 mph S9.7 kmh S 15.0 mph24.1 kmh 29.37 in994.6 mb 0.12 in3.0 mm 0.00 in0.0 mm 0.66 in16.8 mm
12:50 PM 48.0°F8.9°C 45.2°F7.3°C 90% 6.0 mph S9.7 kmh S 15.0 mph24.1 kmh 29.38 in994.9 mb 0.18 in4.6 mm 0.72 in18.3 mm 0.67 in17.0 mm
12:55 PM 48.1°F8.9°C 45.3°F7.4°C 90% 11.0 mph SE17.7 kmh SE 15.0 mph24.1 kmh 29.37 in994.6 mb 0.13 in3.3 mm 0.00 in0.0 mm 0.68 in17.3 mm
01:00 PM 48.2°F9.0°C 45.4°F7.4°C 90% 8.0 mph SSE12.9 kmh SSE 14.0 mph22.5 kmh 29.36 in994.2 mb 0.12 in3.0 mm 0.00 in0.0 mm 0.69 in17.5 mm
01:05 PM 48.3°F9.1°C 45.5°F7.5°C 90% 8.0 mph SE12.9 kmh SE 14.0 mph22.5 kmh 29.34 in993.6 mb 0.15 in3.8 mm 0.36 in9.1 mm 0.71 in18.0 mm
01:10 PM 48.4°F9.1°C 45.6°F7.6°C 90% 5.0 mph S8.0 kmh S 12.0 mph19.3 kmh 29.33 in993.2 mb 0.16 in4.1 mm 0.12 in3.0 mm 0.72 in18.3 mm
01:15 PM 48.5°F9.2°C 45.7°F7.6°C 90% 7.0 mph SSE11.3 kmh SSE 14.0 mph22.5 kmh 29.34 in993.6 mb 0.18 in4.6 mm 0.24 in6.1 mm 0.73 in18.5 mm
01:20 PM 48.6°F9.2°C 45.8°F7.7°C 90% 13.0 mph S20.9 kmh S 14.0 mph22.5 kmh 29.33 in993.2 mb 0.12 in3.0 mm 0.00 in0.0 mm 0.74 in18.8 mm
01:25 PM 48.8°F9.3°C 46.0°F7.8°C 90% 6.0 mph SSE9.7 kmh SSE 17.0 mph27.4 kmh 29.33 in993.2 mb 0.07 in1.8 mm 0.00 in0.0 mm 0.75 in19.1 mm
01:30 PM 48.9°F9.4°C 46.1°F7.8°C 90% 9.0 mph S14.5 kmh S 17.0 mph27.4 kmh 29.32 in992.9 mb 0.07 in1.8 mm 0.00 in0.0 mm 0.75 in19.1 mm
01:35 PM 49.0°F9.4°C 46.2°F7.9°C 90% 7.0 mph SSE11.3 kmh SSE 17.0 mph27.4 kmh 29.31 in992.6 mb 0.09 in2.3 mm 0.24 in6.1 mm 0.76 in19.3 mm
01:40 PM 49.0°F9.4°C 46.2°F7.9°C 90% 9.0 mph S14.5 kmh S 19.0 mph30.6 kmh 29.32 in992.9 mb 0.06 in1.5 mm 0.00 in0.0 mm 0.76 in19.3 mm
01:45 PM 49.1°F9.5°C 46.3°F7.9°C 90% 6.0 mph SSE9.7 kmh SSE 19.0 mph30.6 kmh 29.32 in992.9 mb 0.04 in1.0 mm 0.00 in0.0 mm 0.76 in19.3 mm
01:50 PM 49.2°F9.6°C 46.4°F8.0°C 90% 6.0 mph S9.7 kmh S 19.0 mph30.6 kmh 29.32 in992.9 mb 0.00 in0.0 mm 0.00 in0.0 mm 0.76 in19.3 mm
01:55 PM 49.3°F9.6°C 46.5°F8.1°C 90% 7.0 mph SSW11.3 kmh SSW 19.0 mph30.6 kmh 29.32 in992.9 mb 0.12 in3.0 mm 1.44 in36.6 mm 0.78 in19.8 mm
02:00 PM 49.3°F9.6°C 46.5°F8.1°C 90% 4.0 mph SE6.4 kmh SE 16.0 mph25.7 kmh 29.30 in992.2 mb 0.27 in6.9 mm 0.16 in4.1 mm 0.80 in20.3 mm
02:05 PM 49.4°F9.7°C 46.6°F8.1°C 90% 4.0 mph SSW6.4 kmh SSW 16.0 mph25.7 kmh 29.30 in992.2 mb 0.17 in4.3 mm 0.00 in0.0 mm 0.81 in20.6 mm
02:10 PM 49.4°F9.7°C 46.6°F8.1°C 90% 9.0 mph S14.5 kmh S 9.0 mph14.5 kmh 29.29 in991.9 mb 0.19 in4.8 mm 0.24 in6.1 mm 0.83 in21.1 mm
02:15 PM 49.5°F9.7°C 46.7°F8.2°C 90% 4.0 mph S6.4 kmh S 10.0 mph16.1 kmh 29.29 in991.9 mb 0.23 in5.8 mm 0.48 in12.2 mm 0.85 in21.6 mm
02:20 PM 49.5°F9.7°C 46.7°F8.2°C 90% 7.0 mph SSE11.3 kmh SSE 10.0 mph16.1 kmh 29.29 in991.9 mb 0.25 in6.4 mm 0.24 in6.1 mm 0.86 in21.8 mm
02:25 PM 49.6°F9.8°C 46.8°F8.2°C 90% 4.0 mph SSE6.4 kmh SSE 12.0 mph19.3 kmh 29.28 in991.5 mb 0.29 in7.4 mm 0.48 in12.2 mm 0.89 in22.6 mm
02:30 PM 49.7°F9.8°C 46.9°F8.3°C 90% 8.0 mph SE12.9 kmh SE 12.0 mph19.3 kmh 29.27 in991.2 mb 0.22 in5.6 mm 0.00 in0.0 mm 0.91 in23.1 mm
02:35 PM 49.7°F9.8°C 46.9°F8.3°C 90% 8.0 mph SSE12.9 kmh SSE 12.0 mph19.3 kmh 29.27 in991.2 mb 0.23 in5.8 mm 0.12 in3.0 mm 0.93 in23.6 mm
02:40 PM 49.8°F9.9°C 47.0°F8.3°C 90% 3.0 mph S4.8 kmh S 12.0 mph19.3 kmh 29.26 in990.9 mb 0.34 in8.6 mm 1.32 in33.5 mm 0.96 in24.4 mm
02:45 PM 49.9°F9.9°C 47.1°F8.4°C 90% 3.0 mph SE4.8 kmh SE 11.0 mph17.7 kmh 29.25 in990.5 mb 0.16 in4.1 mm 0.00 in0.0 mm 0.98 in24.9 mm
02:50 PM 50.0°F10.0°C 47.2°F8.4°C 90% 4.0 mph SE6.4 kmh SE 11.0 mph17.7 kmh 29.25 in990.5 mb 0.15 in3.8 mm 0.00 in0.0 mm 0.99 in25.1 mm
02:55 PM 50.1°F10.1°C 47.3°F8.5°C 90% 6.0 mph SE9.7 kmh SE 11.0 mph17.7 kmh 29.24 in990.2 mb 0.11 in2.8 mm 0.00 in0.0 mm 1.00 in25.4 mm
03:00 PM 50.2°F10.1°C 47.4°F8.6°C 90% 3.0 mph SE4.8 kmh SE 11.0 mph17.7 kmh 29.23 in989.8 mb 0.24 in6.1 mm 0.14 in3.6 mm 1.02 in25.9 mm
03:05 PM 50.2°F10.1°C 47.4°F8.6°C 90% 7.0 mph SE11.3 kmh SE 16.0 mph25.7 kmh 29.23 in989.8 mb 0.41 in10.4 mm 2.04 in51.8 mm 1.05 in26.7 mm
03:10 PM 50.2°F10.1°C 47.4°F8.6°C 90% 7.0 mph SE11.3 kmh SE 16.0 mph25.7 kmh 29.22 in989.5 mb 0.31 in7.9 mm 0.00 in0.0 mm 1.07 in27.2 mm
03:15 PM 50.2°F10.1°C 47.4°F8.6°C 90% 7.0 mph S11.3 kmh S 16.0 mph25.7 kmh 29.21 in989.2 mb 0.13 in3.3 mm 0.00 in0.0 mm 1.09 in27.7 mm
03:20 PM 50.2°F10.1°C 47.4°F8.6°C 90% 7.0 mph SSE11.3 kmh SSE 16.0 mph25.7 kmh 29.20 in988.8 mb 0.22 in5.6 mm 1.08 in27.4 mm 1.10 in27.9 mm
03:25 PM 50.2°F10.1°C 47.4°F8.6°C 90% 6.0 mph SE9.7 kmh SE 13.0 mph20.9 kmh 29.20 in988.8 mb 0.18 in4.6 mm 0.00 in0.0 mm 1.12 in28.4 mm
03:30 PM 50.1°F10.1°C 47.3°F8.5°C 90% 4.0 mph W6.4 kmh W 13.0 mph20.9 kmh 29.24 in990.2 mb 0.21 in5.3 mm 0.36 in9.1 mm 1.14 in29.0 mm
03:35 PM 50.1°F10.1°C 47.3°F8.5°C 90% 16.0 mph NW25.7 kmh NW 18.0 mph29.0 kmh 29.28 in991.5 mb 0.53 in13.5 mm 3.84 in97.5 mm 1.16 in29.5 mm
03:40 PM 50.1°F10.1°C 47.3°F8.5°C 90% 9.0 mph SE14.5 kmh SE 18.0 mph29.0 kmh 29.24 in990.2 mb 0.42 in10.7 mm 0.00 in0.0 mm 1.25 in31.8 mm
03:45 PM 50.2°F10.1°C 47.4°F8.6°C 90% 5.0 mph SSE8.0 kmh SSE 18.0 mph29.0 kmh 29.23 in989.8 mb 0.21 in5.3 mm 0.00 in0.0 mm 1.27 in32.3 mm
03:50 PM 50.1°F10.1°C 47.3°F8.5°C 90% 7.0 mph S11.3 kmh S 18.0 mph29.0 kmh 29.24 in990.2 mb 0.16 in4.1 mm 0.00 in0.0 mm 1.28 in32.5 mm
03:55 PM 50.2°F10.1°C 47.4°F8.6°C 90% 7.0 mph SE11.3 kmh SE 10.0 mph16.1 kmh 29.23 in989.8 mb 0.18 in4.6 mm 0.24 in6.1 mm 1.30 in33.0 mm
04:00 PM 50.4°F10.2°C 47.6°F8.7°C 90% 5.0 mph S8.0 kmh S 14.0 mph22.5 kmh 29.22 in989.5 mb 0.24 in6.1 mm 0.07 in1.8 mm 1.32 in33.5 mm
04:05 PM 50.6°F10.3°C 47.8°F8.8°C 90% 13.0 mph SSE20.9 kmh SSE 15.0 mph24.1 kmh 29.20 in988.8 mb 0.31 in7.9 mm 0.84 in21.3 mm 1.33 in33.8 mm
04:10 PM 50.8°F10.4°C 48.0°F8.9°C 90% 18.0 mph S29.0 kmh S 18.0 mph29.0 kmh 29.20 in988.8 mb 0.32 in8.1 mm 0.12 in3.0 mm 1.36 in34.5 mm
04:15 PM 51.0°F10.6°C 48.2°F9.0°C 90% 7.0 mph SE11.3 kmh SE 22.0 mph35.4 kmh 29.20 in988.8 mb 0.23 in5.8 mm 0.00 in0.0 mm 1.38 in35.1 mm
04:20 PM 51.0°F10.6°C 48.2°F9.0°C 90% 13.0 mph SSE20.9 kmh SSE 22.0 mph35.4 kmh 29.18 in988.1 mb 0.29 in7.4 mm 0.72 in18.3 mm 1.40 in35.6 mm
04:25 PM 51.0°F10.6°C 48.2°F9.0°C 90% 9.0 mph SSE14.5 kmh SSE 22.0 mph35.4 kmh 29.19 in988.5 mb 0.26 in6.6 mm 0.00 in0.0 mm 1.42 in36.1 mm
04:30 PM 50.9°F10.5°C 48.1°F8.9°C 90% 7.0 mph SE11.3 kmh SE 22.0 mph35.4 kmh 29.18 in988.1 mb 0.14 in3.6 mm 0.00 in0.0 mm 1.43 in36.3 mm
04:35 PM 50.9°F10.5°C 48.1°F8.9°C 90% 12.0 mph SSE19.3 kmh SSE 24.0 mph38.6 kmh 29.17 in987.8 mb 0.13 in3.3 mm 0.00 in0.0 mm 1.44 in36.6 mm
04:40 PM 50.8°F10.4°C 48.0°F8.9°C 90% 11.0 mph SSE17.7 kmh SSE 25.0 mph40.2 kmh 29.16 in987.5 mb 0.22 in5.6 mm 1.08 in27.4 mm 1.46 in37.1 mm
04:45 PM 50.8°F10.4°C 48.0°F8.9°C 90% 15.0 mph S24.1 kmh S 25.0 mph40.2 kmh 29.15 in987.1 mb 0.15 in3.8 mm 0.00 in0.0 mm 1.47 in37.3 mm
04:50 PM 50.8°F10.4°C 48.0°F8.9°C 90% 14.0 mph S22.5 kmh S 26.0 mph41.8 kmh 29.15 in987.1 mb 0.16 in4.1 mm 0.12 in3.0 mm 1.48 in37.6 mm
04:55 PM 50.8°F10.4°C 48.0°F8.9°C 90% 13.0 mph S20.9 kmh S 26.0 mph41.8 kmh 29.16 in987.5 mb 0.17 in4.3 mm 0.12 in3.0 mm 1.50 in38.1 mm
05:00 PM 50.7°F10.4°C 47.9°F8.8°C 90% 13.0 mph SE20.9 kmh SE 26.0 mph41.8 kmh 29.15 in987.1 mb 0.15 in3.8 mm 0.00 in0.0 mm 1.51 in38.4 mm
05:05 PM 50.7°F10.4°C 47.9°F8.8°C 90% 13.0 mph SSE20.9 kmh SSE 26.0 mph41.8 kmh 29.16 in987.5 mb 0.21 in5.3 mm 0.72 in18.3 mm 1.53 in38.9 mm
05:10 PM 50.8°F10.4°C 48.0°F8.9°C 90% 13.0 mph SSE20.9 kmh SSE 25.0 mph40.2 kmh 29.15 in987.1 mb 0.25 in6.4 mm 0.48 in12.2 mm 1.55 in39.4 mm
05:15 PM 50.9°F10.5°C 48.1°F8.9°C 90% 13.0 mph S20.9 kmh S 25.0 mph40.2 kmh 29.15 in987.1 mb 0.46 in11.7 mm 2.52 in64.0 mm 1.58 in40.1 mm
05:20 PM 50.9°F10.5°C 48.1°F8.9°C 90% 16.0 mph S25.7 kmh S 22.0 mph35.4 kmh 29.15 in987.1 mb 0.32 in8.1 mm 0.00 in0.0 mm 1.61 in40.9 mm
05:25 PM 51.0°F10.6°C 48.2°F9.0°C 90% 11.0 mph SE17.7 kmh SE 22.0 mph35.4 kmh 29.16 in987.5 mb 0.19 in4.8 mm 0.00 in0.0 mm 1.63 in41.4 mm
05:30 PM 51.1°F10.6°C 48.3°F9.1°C 90% 10.0 mph SSE16.1 kmh SSE 21.0 mph33.8 kmh 29.16 in987.5 mb 0.18 in4.6 mm 0.00 in0.0 mm 1.64 in41.7 mm
05:35 PM 51.2°F10.7°C 48.4°F9.1°C 90% 12.0 mph S19.3 kmh S 21.0 mph33.8 kmh 29.15 in987.1 mb 0.12 in3.0 mm 0.00 in0.0 mm 1.65 in41.9 mm
05:40 PM 51.3°F10.7°C 48.5°F9.2°C 90% 13.0 mph S20.9 kmh S 20.0 mph32.2 kmh 29.15 in987.1 mb 0.09 in2.3 mm 0.00 in0.0 mm 1.66 in42.2 mm
05:45 PM 51.5°F10.8°C 48.7°F9.3°C 90% 10.0 mph SW16.1 kmh SW 20.0 mph32.2 kmh 29.15 in987.1 mb 0.11 in2.8 mm 0.24 in6.1 mm 1.67 in42.4 mm
05:50 PM 51.7°F10.9°C 48.9°F9.4°C 90% 5.0 mph SW8.0 kmh SW 15.0 mph24.1 kmh 29.14 in986.8 mb 0.10 in2.5 mm 0.00 in0.0 mm 1.67 in42.4 mm
05:55 PM 51.8°F11.0°C 48.9°F9.4°C 90% 6.0 mph SW9.7 kmh SW 15.0 mph24.1 kmh 29.16 in987.5 mb 0.07 in1.8 mm 0.00 in0.0 mm 1.68 in42.7 mm
06:00 PM 52.0°F11.1°C 49.1°F9.5°C 90% 5.0 mph SW8.0 kmh SW 11.0 mph17.7 kmh 29.16 in987.5 mb 0.07 in1.8 mm 0.00 in0.0 mm 1.68 in42.7 mm
06:05 PM 52.3°F11.3°C 49.4°F9.7°C 90% 7.0 mph SSW11.3 kmh SSW 11.0 mph17.7 kmh 29.15 in987.1 mb 0.08 in2.0 mm 0.12 in3.0 mm 1.69 in42.9 mm
06:10 PM 52.5°F11.4°C 49.6°F9.8°C 90% 8.0 mph S12.9 kmh S 11.0 mph17.7 kmh 29.15 in987.1 mb 0.06 in1.5 mm 0.00 in0.0 mm 1.69 in42.9 mm
06:15 PM 52.8°F11.6°C 49.9°F9.9°C 90% 5.0 mph S8.0 kmh S 13.0 mph20.9 kmh 29.15 in987.1 mb 0.04 in1.0 mm 0.00 in0.0 mm 1.69 in42.9 mm
06:20 PM 53.2°F11.8°C 50.3°F10.2°C 90% 7.0 mph SSW11.3 kmh SSW 15.0 mph24.1 kmh 29.16 in987.5 mb 0.00 in0.0 mm 0.00 in0.0 mm 1.70 in43.2 mm
06:25 PM 53.5°F11.9°C 50.6°F10.3°C 90% 11.0 mph S17.7 kmh S 15.0 mph24.1 kmh 29.13 in986.5 mb 0.00 in0.0 mm 0.00 in0.0 mm 1.70 in43.2 mm
06:30 PM 53.6°F12.0°C 50.7°F10.4°C 90% 9.0 mph S14.5 kmh S 15.0 mph24.1 kmh 29.14 in986.8 mb 0.06 in1.5 mm 0.72 in18.3 mm 1.71 in43.4 mm
06:35 PM 53.9°F12.2°C 51.0°F10.6°C 90% 7.0 mph SW11.3 kmh SW 15.0 mph24.1 kmh 29.15 in987.1 mb 0.06 in1.5 mm 0.00 in0.0 mm 1.71 in43.4 mm
06:40 PM 54.1°F12.3°C 51.2°F10.7°C 90% 11.0 mph SW17.7 kmh SW 15.0 mph24.1 kmh 29.15 in987.1 mb 0.05 in1.3 mm 0.00 in0.0 mm 1.71 in43.4 mm
06:45 PM 54.2°F12.3°C 51.3°F10.7°C 90% 10.0 mph W16.1 kmh W 15.0 mph24.1 kmh 29.16 in987.5 mb 0.00 in0.0 mm 0.00 in0.0 mm 1.71 in43.4 mm
06:50 PM 54.2°F12.3°C 51.3°F10.7°C 90% 5.0 mph W8.0 kmh W 13.0 mph20.9 kmh 29.15 in987.1 mb 0.00 in0.0 mm 0.00 in0.0 mm 1.71 in43.4 mm
06:55 PM 54.0°F12.2°C 51.1°F10.6°C 90% 5.0 mph W8.0 kmh W 13.0 mph20.9 kmh 29.16 in987.5 mb 0.00 in0.0 mm 0.00 in0.0 mm 1.71 in43.4 mm
07:00 PM 53.9°F12.2°C 51.0°F10.6°C 90% 6.0 mph WNW9.7 kmh WNW 13.0 mph20.9 kmh 29.16 in987.5 mb 0.00 in0.0 mm 0.00 in0.0 mm 1.71 in43.4 mm
07:05 PM 53.6°F12.0°C 50.7°F10.4°C 90% 5.0 mph WSW8.0 kmh WSW 13.0 mph20.9 kmh 29.16 in987.5 mb 0.00 in0.0 mm 0.00 in0.0 mm 1.71 in43.4 mm
07:10 PM 53.4°F11.9°C 50.5°F10.3°C 90% 7.0 mph W11.3 kmh W 11.0 mph17.7 kmh 29.16 in987.5 mb 0.00 in0.0 mm 0.00 in0.0 mm 1.71 in43.4 mm
07:15 PM 53.1°F11.7°C 50.2°F10.1°C 90% 5.0 mph W8.0 kmh W 12.0 mph19.3 kmh 29.17 in987.8 mb 0.00 in0.0 mm 0.00 in0.0 mm 1.72 in43.7 mm
07:20 PM 52.6°F11.4°C 49.7°F9.8°C 90% 12.0 mph WNW19.3 kmh WNW 17.0 mph27.4 kmh 29.18 in988.1 mb 0.00 in0.0 mm 0.00 in0.0 mm 1.72 in43.7 mm
07:25 PM 51.7°F10.9°C 48.5°F9.2°C 89% 11.0 mph WNW17.7 kmh WNW 19.0 mph30.6 kmh 29.19 in988.5 mb 0.00 in0.0 mm 0.00 in0.0 mm 1.72 in43.7 mm
07:30 PM 50.8°F10.4°C 47.7°F8.7°C 89% 8.0 mph NNE12.9 kmh NNE 19.0 mph30.6 kmh 29.19 in988.5 mb 0.00 in0.0 mm 0.00 in0.0 mm 1.72 in43.7 mm
07:35 PM 49.9°F9.9°C 46.8°F8.2°C 89% 8.0 mph NW12.9 kmh NW 19.0 mph30.6 kmh 29.20 in988.8 mb 0.00 in0.0 mm 0.00 in0.0 mm 1.73 in43.9 mm
07:40 PM 49.1°F9.5°C 46.0°F7.8°C 89% 10.0 mph NNW16.1 kmh NNW 19.0 mph30.6 kmh 29.20 in988.8 mb 0.00 in0.0 mm 0.00 in0.0 mm 1.73 in43.9 mm
07:45 PM 48.5°F9.2°C 45.4°F7.4°C 89% 16.0 mph NNE25.7 kmh NNE 16.0 mph25.7 kmh 29.20 in988.8 mb 0.00 in0.0 mm 0.00 in0.0 mm 1.73 in43.9 mm
07:50 PM 48.0°F8.9°C 44.9°F7.2°C 89% 9.0 mph NNW14.5 kmh NNW 19.0 mph30.6 kmh 29.20 in988.8 mb 0.00 in0.0 mm 0.00 in0.0 mm 1.73 in43.9 mm
07:55 PM 47.5°F8.6°C 44.4°F6.9°C 89% 5.0 mph NW8.0 kmh NW 19.0 mph30.6 kmh 29.20 in988.8 mb 0.00 in0.0 mm 0.00 in0.0 mm 1.74 in44.2 mm
08:00 PM 47.0°F8.3°C 43.9°F6.6°C 89% 6.0 mph NW9.7 kmh NW 20.0 mph32.2 kmh 29.21 in989.2 mb 0.00 in0.0 mm 0.00 in0.0 mm 1.74 in44.2 mm
08:05 PM 46.6°F8.1°C 43.5°F6.4°C 89% 8.0 mph NW12.9 kmh NW 20.0 mph32.2 kmh 29.21 in989.2 mb 0.00 in0.0 mm 0.00 in0.0 mm 1.74 in44.2 mm
08:10 PM 46.4°F8.0°C 43.3°F6.3°C 89% 11.0 mph NNW17.7 kmh NNW 20.0 mph32.2 kmh 29.22 in989.5 mb 0.00 in0.0 mm 0.00 in0.0 mm 1.74 in44.2 mm
08:15 PM 46.2°F7.9°C 43.1°F6.2°C 89% 8.0 mph NNW12.9 kmh NNW 20.0 mph32.2 kmh 29.21 in989.2 mb 0.00 in0.0 mm 0.00 in0.0 mm 1.74 in44.2 mm
08:20 PM 46.0°F7.8°C 42.9°F6.1°C 89% 8.0 mph NNW12.9 kmh NNW 20.0 mph32.2 kmh 29.21 in989.2 mb 0.00 in0.0 mm 0.00 in0.0 mm 1.75 in44.5 mm
08:25 PM 45.7°F7.6°C 42.6°F5.9°C 89% 10.0 mph N16.1 kmh N 22.0 mph35.4 kmh 29.22 in989.5 mb 0.00 in0.0 mm 0.00 in0.0 mm 1.75 in44.5 mm
08:30 PM 45.3°F7.4°C 42.3°F5.7°C 89% 10.0 mph NW16.1 kmh NW 22.0 mph35.4 kmh 29.24 in990.2 mb 0.00 in0.0 mm 0.00 in0.0 mm 1.75 in44.5 mm
08:35 PM 45.0°F7.2°C 42.0°F5.6°C 89% 7.0 mph NNE11.3 kmh NNE 22.0 mph35.4 kmh 29.24 in990.2 mb 0.00 in0.0 mm 0.00 in0.0 mm 1.75 in44.5 mm
08:40 PM 44.7°F7.1°C 41.7°F5.4°C 89% 12.0 mph NE19.3 kmh NE 22.0 mph35.4 kmh 29.24 in990.2 mb 0.00 in0.0 mm 0.00 in0.0 mm 1.76 in44.7 mm
08:45 PM 44.5°F6.9°C 41.5°F5.3°C 89% 5.0 mph WNW8.0 kmh WNW 19.0 mph30.6 kmh 29.25 in990.5 mb 0.00 in0.0 mm 0.00 in0.0 mm 1.76 in44.7 mm
08:50 PM 44.3°F6.8°C 41.3°F5.2°C 89% 11.0 mph NW17.7 kmh NW 19.0 mph30.6 kmh 29.25 in990.5 mb 0.00 in0.0 mm 0.00 in0.0 mm 1.76 in44.7 mm
08:58 PM 43.9°F6.6°C 40.9°F4.9°C 89% 7.0 mph NW11.3 kmh NW 15.0 mph24.1 kmh 29.25 in990.5 mb 0.04 in1.0 mm 0.30 in7.6 mm 1.77 in45.0 mm
09:03 PM 43.7°F6.5°C 40.7°F4.8°C 89% 14.0 mph NW22.5 kmh NW 16.0 mph25.7 kmh 29.25 in990.5 mb 0.04 in1.0 mm 0.00 in0.0 mm 1.77 in45.0 mm
09:08 PM 43.4°F6.3°C 40.4°F4.7°C 89% 6.0 mph NE9.7 kmh NE 21.0 mph33.8 kmh 29.25 in990.5 mb 0.04 in1.0 mm 0.00 in0.0 mm 1.77 in45.0 mm
09:13 PM 43.2°F6.2°C 40.2°F4.6°C 89% 13.0 mph NW20.9 kmh NW 21.0 mph33.8 kmh 29.26 in990.9 mb 0.04 in1.0 mm 0.00 in0.0 mm 1.78 in45.2 mm
09:18 PM 42.7°F5.9°C 39.7°F4.3°C 89% 7.0 mph 11.3 kmh 21.0 mph33.8 kmh 29.26 in990.9 mb 0.04 in1.0 mm 0.00 in0.0 mm 1.78 in45.2 mm
09:23 PM 42.3°F5.7°C 39.3°F4.1°C 89% 9.0 mph NW14.5 kmh NW 21.0 mph33.8 kmh 29.27 in991.2 mb 0.04 in1.0 mm 0.00 in0.0 mm 1.78 in45.2 mm
09:28 PM 42.1°F5.6°C 39.1°F3.9°C 89% 5.0 mph WNW8.0 kmh WNW 18.0 mph29.0 kmh 29.28 in991.5 mb 0.00 in0.0 mm 0.00 in0.0 mm 1.78 in45.2 mm
09:33 PM 41.7°F5.4°C 38.7°F3.7°C 89% 10.0 mph NNW16.1 kmh NNW 18.0 mph29.0 kmh 29.29 in991.9 mb 0.00 in0.0 mm 0.00 in0.0 mm 1.78 in45.2 mm
09:38 PM 41.3°F5.2°C 38.3°F3.5°C 89% 15.0 mph NW24.1 kmh NW 21.0 mph33.8 kmh 29.29 in991.9 mb 0.00 in0.0 mm 0.00 in0.0 mm 1.79 in45.5 mm
09:43 PM 40.8°F4.9°C 37.8°F3.2°C 89% 11.0 mph NW17.7 kmh NW 25.0 mph40.2 kmh 29.30 in992.2 mb 0.17 in4.3 mm 2.04 in51.8 mm 1.80 in45.7 mm
09:48 PM 40.4°F4.7°C 37.4°F3.0°C 89% 14.0 mph NW22.5 kmh NW 25.0 mph40.2 kmh 29.31 in992.6 mb 0.07 in1.8 mm 0.00 in0.0 mm 1.80 in45.7 mm
09:53 PM 40.0°F4.4°C 37.0°F2.8°C 89% 12.0 mph W19.3 kmh W 25.0 mph40.2 kmh 29.33 in993.2 mb 0.05 in1.3 mm 0.00 in0.0 mm 1.81 in46.0 mm
09:58 PM 39.4°F4.1°C 36.4°F2.4°C 89% 19.0 mph WSW30.6 kmh WSW 27.0 mph43.5 kmh 29.33 in993.2 mb 0.05 in1.3 mm 0.00 in0.0 mm 1.81 in46.0 mm
10:03 PM 39.0°F3.9°C 36.1°F2.3°C 89% 9.0 mph WNW14.5 kmh WNW 29.0 mph46.7 kmh 29.34 in993.6 mb 0.06 in1.5 mm 0.01 in0.3 mm 1.82 in46.2 mm
10:08 PM 38.8°F3.8°C 35.9°F2.2°C 89% 13.0 mph NW20.9 kmh NW 29.0 mph46.7 kmh 29.34 in993.6 mb 0.17 in4.3 mm 1.32 in33.5 mm 1.83 in46.5 mm
10:13 PM 38.5°F3.6°C 35.6°F2.0°C 89% 13.0 mph WNW20.9 kmh WNW 29.0 mph46.7 kmh 29.34 in993.6 mb 0.13 in3.3 mm 0.00 in0.0 mm 1.84 in46.7 mm
10:18 PM 38.4°F3.6°C 35.5°F1.9°C 89% 9.0 mph WNW14.5 kmh WNW 29.0 mph46.7 kmh 29.35 in993.9 mb 0.10 in2.5 mm 0.00 in0.0 mm 1.85 in47.0 mm
10:23 PM 38.0°F3.3°C 35.1°F1.7°C 89% 16.0 mph NW25.7 kmh NW 26.0 mph41.8 kmh 29.36 in994.2 mb 0.11 in2.8 mm 0.12 in3.0 mm 1.86 in47.2 mm
10:28 PM 37.7°F3.2°C 34.5°F1.4°C 88% 8.0 mph NNW12.9 kmh NNW 26.0 mph41.8 kmh 29.38 in994.9 mb 0.13 in3.3 mm 0.24 in6.1 mm 1.87 in47.5 mm
10:33 PM 37.4°F3.0°C 34.5°F1.4°C 89% 14.0 mph NW22.5 kmh NW 22.0 mph35.4 kmh 29.38 in994.9 mb 0.09 in2.3 mm 0.00 in0.0 mm 1.88 in47.8 mm
10:38 PM 37.1°F2.8°C 33.9°F1.1°C 88% 12.0 mph WNW19.3 kmh WNW 22.0 mph35.4 kmh 29.38 in994.9 mb 0.09 in2.3 mm 0.00 in0.0 mm 1.89 in48.0 mm
10:43 PM 36.7°F2.6°C 33.5°F0.8°C 88% 11.0 mph WNW17.7 kmh WNW 21.0 mph33.8 kmh 29.39 in995.3 mb 0.09 in2.3 mm 0.00 in0.0 mm 1.89 in48.0 mm
10:48 PM 36.5°F2.5°C 33.3°F0.7°C 88% 12.0 mph NNW19.3 kmh NNW 27.0 mph43.5 kmh 29.39 in995.3 mb 0.10 in2.5 mm 0.12 in3.0 mm 1.90 in48.3 mm
10:53 PM 36.4°F2.4°C 33.2°F0.7°C 88% 7.0 mph NW11.3 kmh NW 28.0 mph45.1 kmh 29.39 in995.3 mb 0.06 in1.5 mm 0.00 in0.0 mm 1.90 in48.3 mm
10:58 PM 36.4°F2.4°C 33.5°F0.8°C 89% 10.0 mph NE16.1 kmh NE 28.0 mph45.1 kmh 29.39 in995.3 mb 0.06 in1.5 mm 0.00 in0.0 mm 1.91 in48.5 mm
11:03 PM 36.7°F2.6°C 33.8°F1.0°C 89% 15.0 mph NW24.1 kmh NW 28.0 mph45.1 kmh 29.39 in995.3 mb 0.06 in1.5 mm 0.00 in0.0 mm 1.91 in48.5 mm
11:08 PM 36.9°F2.7°C 34.0°F1.1°C 89% 6.0 mph NW9.7 kmh NW 28.0 mph45.1 kmh 29.39 in995.3 mb 0.04 in1.0 mm 0.00 in0.0 mm 1.91 in48.5 mm
11:13 PM 37.1°F2.8°C 34.2°F1.2°C 89% 8.0 mph WNW12.9 kmh WNW 23.0 mph37.0 kmh 29.39 in995.3 mb 0.04 in1.0 mm 0.00 in0.0 mm 1.92 in48.8 mm
11:18 PM 37.2°F2.9°C 34.3°F1.3°C 89% 14.0 mph NW22.5 kmh NW 32.0 mph51.5 kmh 29.39 in995.3 mb 0.04 in1.0 mm 0.00 in0.0 mm 1.92 in48.8 mm
11:23 PM 37.3°F2.9°C 34.4°F1.3°C 89% 14.0 mph WNW22.5 kmh WNW 32.0 mph51.5 kmh 29.40 in995.6 mb 0.04 in1.0 mm 0.00 in0.0 mm 1.92 in48.8 mm
11:28 PM 37.3°F2.9°C 34.4°F1.3°C 89% 12.0 mph W19.3 kmh W 32.0 mph51.5 kmh 29.40 in995.6 mb 0.00 in0.0 mm 0.00 in0.0 mm 1.93 in49.0 mm
11:33 PM 37.3°F2.9°C 34.4°F1.3°C 89% 9.0 mph NW14.5 kmh NW 32.0 mph51.5 kmh 29.41 in995.9 mb 0.00 in0.0 mm 0.00 in0.0 mm 1.93 in49.0 mm
11:38 PM 37.2°F2.9°C 34.3°F1.3°C 89% 15.0 mph NW24.1 kmh NW 27.0 mph43.5 kmh 29.41 in995.9 mb 0.00 in0.0 mm 0.00 in0.0 mm 1.93 in49.0 mm
11:43 PM 37.2°F2.9°C 34.3°F1.3°C 89% 6.0 mph NW9.7 kmh NW 27.0 mph43.5 kmh 29.41 in995.9 mb 0.00 in0.0 mm 0.00 in0.0 mm 1.93 in49.0 mm
11:48 PM 37.3°F2.9°C 34.4°F1.3°C 89% 15.0 mph NW24.1 kmh NW 27.0 mph43.5 kmh 29.42 in996.3 mb 0.00 in0.0 mm 0.00 in0.0 mm 1.93 in49.0 mm
11:53 PM 37.4°F3.0°C 34.5°F1.4°C 89% 7.0 mph WNW11.3 kmh WNW 27.0 mph43.5 kmh 29.42 in996.3 mb 0.00 in0.0 mm 0.00 in0.0 mm 1.94 in49.3 mm
11:58 PM 37.5°F3.1°C 34.6°F1.4°C 89% 7.0 mph W11.3 kmh W 25.0 mph40.2 kmh 29.43 in996.6 mb 0.00 in0.0 mm 0.00 in0.0 mm 1.94 in49.3 mm